createdAt,value
2022-11-22T09:50:10.572Z,4.97
2022-11-22T09:52:51.254Z,0.70
2022-11-22T09:55:26.595Z,1.55
2022-11-22T09:58:19.106Z,0.80
2022-11-22T10:00:52.042Z,5.40
2022-11-22T10:03:28.422Z,0.73
2022-11-22T10:05:58.240Z,1.88
2022-11-22T10:08:24.977Z,1.95
2022-11-22T10:10:54.521Z,1.20
2022-11-22T10:13:43.349Z,1.00
2022-11-22T10:16:10.292Z,1.50
2022-11-22T10:18:58.499Z,5.50
2022-11-22T10:21:26.321Z,1.80
2022-11-22T10:23:53.589Z,1.85
2022-11-22T10:26:38.709Z,0.85
2022-11-22T10:29:45.066Z,0.82
2022-11-22T10:32:20.448Z,1.05
2022-11-22T10:35:00.083Z,1.00
2022-11-22T10:37:47.988Z,1.05
2022-11-22T10:40:37.613Z,0.90
2022-11-22T10:43:27.518Z,1.20
2022-11-22T10:46:09.279Z,1.15
2022-11-22T10:48:41.332Z,7.00
2022-11-22T10:51:17.105Z,2.55
2022-11-22T10:54:03.905Z,1.15
2022-11-22T10:56:54.085Z,1.10
2022-11-22T10:59:40.870Z,0.95
2022-11-22T11:02:31.338Z,1.98
2022-11-22T11:05:00.871Z,2.35
2022-11-22T11:07:28.106Z,1.00
2022-11-22T11:10:25.942Z,0.93
2022-11-22T11:13:01.795Z,0.80
2022-11-22T11:15:41.425Z,1.15
2022-11-22T11:18:27.109Z,0.70
2022-11-22T11:20:54.112Z,1.02
2022-11-22T11:23:21.019Z,0.98
2022-11-22T11:25:52.257Z,0.80
2022-11-22T11:28:25.352Z,1.27
2022-11-22T11:31:00.022Z,2.15
2022-11-22T11:33:31.917Z,0.80
2022-11-22T11:36:10.575Z,1.55
2022-11-22T11:38:50.515Z,1.60
2022-11-22T11:41:25.408Z,1.88
2022-11-22T11:43:54.674Z,3.38
2022-11-22T11:46:24.114Z,2.65
2022-11-22T11:48:52.897Z,2.72
2022-11-22T11:51:37.686Z,1.98
2022-11-22T11:54:44.088Z,2.60
2022-11-22T11:57:15.622Z,1.73
2022-11-22T11:59:46.692Z,7.82
2022-11-22T12:02:21.489Z,8.52
2022-11-22T12:04:56.088Z,2.90
2022-11-22T12:07:27.641Z,11.02
2022-11-22T12:09:55.980Z,3.10
2022-11-22T12:12:48.988Z,8.18
2022-11-22T12:17:56.168Z,9.15
2022-11-22T12:20:29.201Z,5.22
2022-11-22T12:23:23.727Z,4.03
2022-11-22T12:25:54.902Z,2.83
2022-11-22T12:28:24.846Z,6.00
2022-11-22T12:30:57.083Z,3.67
2022-11-22T12:33:54.603Z,3.35
2022-11-22T12:36:32.517Z,3.72
2022-11-22T12:39:04.377Z,6.00
2022-11-22T12:41:33.628Z,3.47
2022-11-22T12:44:04.287Z,9.20
2022-11-22T12:46:39.900Z,3.30
2022-11-22T12:49:18.221Z,4.05
2022-11-22T12:51:52.098Z,4.45
2022-11-22T12:54:30.654Z,3.78
2022-11-22T12:57:02.622Z,8.57
2022-11-22T12:59:44.249Z,6.70
2022-11-22T13:02:14.131Z,7.20
2022-11-22T13:05:01.688Z,5.65
2022-11-22T13:07:44.200Z,7.30
2022-11-22T13:10:40.000Z,5.93
2022-11-22T13:13:17.480Z,6.03
2022-11-22T13:15:45.867Z,6.00
2022-11-22T13:18:16.766Z,9.43
2022-11-22T13:21:02.568Z,3.67
2022-11-22T13:23:35.177Z,5.50
2022-11-22T13:28:46.677Z,3.55
2022-11-22T18:37:03.164Z,11.55
2022-11-22T18:39:33.692Z,7.07
2022-11-22T18:42:01.045Z,11.75
2022-11-22T18:44:27.933Z,16.52
2022-11-22T18:46:54.807Z,9.02
2022-11-22T18:49:21.718Z,8.50
2022-11-22T18:51:48.694Z,6.90
2022-11-22T18:54:16.052Z,11.07
2022-11-22T18:56:42.955Z,10.73
2022-11-22T18:59:12.787Z,9.75
2022-11-22T19:01:40.651Z,9.93
2022-11-22T19:04:09.278Z,10.20
2022-11-22T19:06:36.126Z,10.27
2022-11-22T19:09:06.962Z,12.35
2022-11-22T19:11:34.027Z,15.02
2022-11-22T19:14:01.221Z,14.77
2022-11-22T19:16:30.222Z,9.73
2022-11-22T19:18:58.649Z,7.38
2022-11-22T19:21:28.372Z,7.28
2022-11-22T19:23:56.214Z,7.53
2022-11-22T19:26:25.228Z,9.10
2022-11-22T19:28:55.966Z,10.10
2022-11-22T19:31:25.950Z,8.10
2022-11-22T19:33:53.011Z,7.68
2022-11-22T19:36:25.334Z,6.13
2022-11-22T19:38:57.846Z,6.03
2022-11-22T19:41:25.088Z,4.90
2022-11-22T19:43:52.438Z,6.78
2022-11-22T19:46:20.047Z,7.35
2022-11-22T19:48:54.340Z,10.35
2022-11-22T19:51:22.227Z,7.35
2022-11-22T19:53:49.358Z,12.95
2022-11-22T19:56:18.030Z,12.48
2022-11-22T19:58:50.426Z,11.00
2022-11-22T20:01:17.754Z,5.57
2022-11-22T20:03:45.477Z,5.40
2022-11-22T20:06:14.095Z,5.78
2022-11-22T20:08:41.587Z,8.82
2022-11-22T20:11:09.885Z,16.42
2022-11-22T20:13:39.132Z,7.80
2022-11-22T20:16:07.454Z,5.82
2022-11-22T20:18:34.662Z,11.35
2022-11-22T20:21:03.128Z,14.63
2022-11-22T20:23:31.019Z,12.82
2022-11-22T20:26:09.970Z,12.30
2022-11-22T20:28:38.127Z,15.98
2022-11-22T20:31:12.335Z,7.88
2022-11-22T20:33:42.927Z,6.40
2022-11-22T20:36:15.312Z,7.22
2022-11-22T20:38:43.510Z,7.38
2022-11-22T20:41:12.245Z,7.97
2022-11-22T20:43:39.615Z,7.80
2022-11-22T20:46:09.231Z,7.97
2022-11-22T20:48:37.954Z,6.85
2022-11-22T20:51:10.750Z,8.30
2022-11-22T20:53:37.875Z,7.35
2022-11-22T20:56:05.202Z,7.78
2022-11-22T20:58:32.267Z,9.30
2022-11-22T21:00:59.425Z,6.38
2022-11-22T21:03:27.663Z,8.75
2022-11-22T21:05:55.511Z,13.38
2022-11-22T21:08:22.896Z,7.32
2022-11-22T21:10:50.054Z,7.85
2022-11-22T21:13:17.125Z,8.05
2022-11-22T21:15:44.348Z,7.15
2022-11-22T21:18:27.353Z,11.02
2022-11-22T21:20:54.221Z,8.48
2022-11-22T21:23:21.051Z,6.63
2022-11-22T21:25:50.447Z,7.10
2022-11-22T21:28:17.396Z,5.93
2022-11-22T21:30:44.166Z,6.97
2022-11-22T21:33:11.041Z,6.82
2022-11-22T21:35:37.811Z,7.60
2022-11-22T21:38:04.638Z,8.07
2022-11-22T21:40:31.474Z,6.93
2022-11-22T21:42:58.541Z,6.18
2022-11-22T21:45:25.286Z,7.03
2022-11-22T21:47:52.071Z,6.40
2022-11-22T21:50:19.024Z,6.28
2022-11-22T21:52:45.789Z,7.07
2022-11-22T21:55:13.092Z,8.15
2022-11-22T21:57:39.945Z,6.63
2022-11-22T22:00:07.905Z,6.25
2022-11-22T22:02:35.758Z,6.30
2022-11-22T22:05:02.697Z,19.38
2022-11-22T22:07:51.301Z,10.32
2022-11-22T22:10:16.805Z,4.97
2022-11-22T22:12:43.625Z,5.65
2022-11-22T22:15:14.590Z,5.50
2022-11-22T22:17:41.471Z,5.38
2022-11-22T22:20:08.677Z,6.50
2022-11-22T22:22:36.946Z,4.82
